Time;durP1;ratioP1;P1;durP2;ratioP2;P2;SDS_P1;SDS_P2;PMS_P1;PMS_P2;Temp;Humidity;BMP_temperature;BMP_pressure;BME280_temperature;BME280_humidity;BME280_pressure;Samples;Min_cycle;Max_cycle;Signal;HPM_P1;HPM_P2
2022/06/16 00:00:31;;;;;;;;;;;;;;;23.66;46.08;101431.72;2083321;28;1041;-54
2022/06/16 00:01:31;;;;;;;;;;;;;;;23.64;45.42;101430.88;2083878;28;769;-54
2022/06/16 00:02:31;;;;;;;;;;;;;;;23.63;45.37;101434.53;2083868;28;993;-54
2022/06/16 00:03:31;;;;;;;;;;;;;;;23.62;45.96;101427.34;2083901;28;760;-54
2022/06/16 00:04:32;;;;;;;;;;;;;;;23.63;45.80;101430.94;2083882;28;757;-54
2022/06/16 00:05:34;;;;;;;;;;;;;;;23.61;46.28;101432.81;2083984;28;1016;-54
2022/06/16 00:06:34;;;;;;;;;;;;;;;23.60;46.41;101425.63;2083877;28;791;-54
2022/06/16 00:07:34;;;;;;;;;;;;;;;23.59;46.66;101429.28;2083868;28;848;-54
2022/06/16 00:08:34;;;;;;;;;;;;;;;23.59;46.44;101426.56;2083855;28;961;-54
2022/06/16 00:09:35;;;;;;;;;;;;;;;23.58;46.39;101425.72;2083733;28;1944;-54
2022/06/16 00:10:36;;;;;;;;;;;;;;;23.56;45.98;101427.59;2083856;28;830;-54
2022/06/16 00:11:36;;;;;;;;;;;;;;;23.56;46.72;101421.28;2083833;28;825;-54
2022/06/16 00:12:38;;;;;;;;;;;;;;;23.54;46.37;101424.06;2083785;28;1009;-54
2022/06/16 00:13:39;;;;;;;;;;;;;;;23.51;47.09;101425.06;2083792;28;1005;-54
2022/06/16 00:14:39;;;;;;;;;;;;;;;23.51;46.96;101427.75;2083826;28;834;-54
2022/06/16 00:15:39;;;;;;;;;;;;;;;23.52;46.70;101425.94;2083803;28;1017;-54
2022/06/16 00:16:39;;;;;;;;;;;;;;;23.51;46.25;101422.34;2083745;28;979;-54
2022/06/16 00:17:40;;;;;;;;;;;;;;;23.51;47.16;101424.16;2083782;28;801;-54
2022/06/16 00:18:40;;;;;;;;;;;;;;;23.50;46.34;101427.81;2083791;28;1037;-54
2022/06/16 00:19:41;;;;;;;;;;;;;;;23.49;46.47;101421.53;2083823;28;808;-54
2022/06/16 00:20:42;;;;;;;;;;;;;;;23.48;47.13;101425.16;2083760;28;1184;-54
2022/06/16 00:21:42;;;;;;;;;;;;;;;23.45;47.56;101425.28;2083773;28;862;-54
2022/06/16 00:22:42;;;;;;;;;;;;;;;23.46;46.77;101416.22;2083774;28;788;-54
2022/06/16 00:23:43;;;;;;;;;;;;;;;23.47;47.39;101420.69;2083773;28;1147;-54
2022/06/16 00:24:43;;;;;;;;;;;;;;;23.47;46.66;101418.00;2083763;28;958;-54
2022/06/16 00:25:43;;;;;;;;;;;;;;;23.47;47.31;101418.00;2083681;28;1215;-54
2022/06/16 00:26:43;;;;;;;;;;;;;;;23.48;46.73;101418.88;2083685;28;982;-54
2022/06/16 00:27:44;;;;;;;;;;;;;;;23.46;47.55;101421.63;2083575;28;1042;-54
2022/06/16 00:28:46;;;;;;;;;;;;;;;23.46;47.38;101421.63;2083679;28;830;-54
2022/06/16 00:29:46;;;;;;;;;;;;;;;23.47;47.27;101425.22;2083617;28;1975;-54
2022/06/16 00:30:46;;;;;;;;;;;;;;;23.46;47.59;101426.16;2083623;28;1010;-54
2022/06/16 00:31:46;;;;;;;;;;;;;;;23.44;47.32;101423.53;2083700;28;1025;-54
2022/06/16 00:32:46;;;;;;;;;;;;;;;23.43;47.01;101421.75;2083631;28;1005;-54
2022/06/16 00:33:47;;;;;;;;;;;;;;;23.42;47.36;101419.09;2083633;28;822;-54
2022/06/16 00:34:48;;;;;;;;;;;;;;;23.41;47.85;101422.72;2083628;28;981;-54
2022/06/16 00:35:48;;;;;;;;;;;;;;;23.39;48.02;101415.56;2083675;28;850;-54
2022/06/16 00:36:48;;;;;;;;;;;;;;;23.38;47.90;101416.50;2083627;28;990;-54
2022/06/16 00:37:48;;;;;;;;;;;;;;;23.37;47.72;101411.16;2083514;28;1271;-54
2022/06/16 00:38:49;;;;;;;;;;;;;;;23.35;47.99;101422.00;2083604;28;782;-54
2022/06/16 00:39:49;;;;;;;;;;;;;;;23.32;48.40;101413.16;2083594;28;799;-54
2022/06/16 00:40:49;;;;;;;;;;;;;;;23.30;47.71;101423.13;2083608;28;784;-54
2022/06/16 00:41:49;;;;;;;;;;;;;;;23.29;48.40;101421.34;2083582;28;815;-54
2022/06/16 00:42:50;;;;;;;;;;;;;;;23.27;48.30;101420.53;2083579;28;1102;-54
2022/06/16 00:43:50;;;;;;;;;;;;;;;23.23;48.42;101426.03;2083486;28;894;-54
2022/06/16 00:44:51;;;;;;;;;;;;;;;23.21;48.38;101421.63;2083566;28;982;-54
2022/06/16 00:45:58;;;;;;;;;;;;;;;23.19;48.73;101423.50;2083597;28;875;-54
2022/06/16 00:46:58;;;;;;;;;;;;;;;23.15;48.30;101421.81;2083560;28;820;-54
2022/06/16 00:47:58;;;;;;;;;;;;;;;23.12;48.67;101425.50;2083499;28;1064;-54
2022/06/16 00:49:02;;;;;;;;;;;;;;;23.12;48.54;101430.03;2083538;28;1030;-54
2022/06/16 00:50:04;;;;;;;;;;;;;;;23.11;48.46;101423.75;2083465;28;1953;-54
2022/06/16 00:51:10;;;;;;;;;;;;;;;23.12;47.75;101430.03;2083465;28;1158;-54
2022/06/16 00:52:15;;;;;;;;;;;;;;;23.13;47.64;101432.66;2083584;28;836;-54
2022/06/16 00:53:16;;;;;;;;;;;;;;;23.12;47.36;101430.91;2083539;28;965;-54
2022/06/16 00:54:40;;;;;;;;;;;;;;;23.09;46.72;101425.59;2083469;28;910;-54
2022/06/16 00:55:40;;;;;;;;;;;;;;;23.07;46.30;101419.38;2083523;28;977;-54
2022/06/16 00:56:41;;;;;;;;;;;;;;;23.08;46.78;101432.84;2083480;28;1053;-54
2022/06/16 00:57:43;;;;;;;;;;;;;;;23.08;45.79;101427.44;2083495;28;982;-54
2022/06/16 00:58:46;;;;;;;;;;;;;;;23.08;45.38;101426.53;2083608;28;934;-54
2022/06/16 00:59:46;;;;;;;;;;;;;;;23.09;45.47;101423.81;2083485;28;954;-54
2022/06/16 01:00:46;;;;;;;;;;;;;;;23.06;45.64;101423.91;2083431;28;1088;-54
2022/06/16 01:01:47;;;;;;;;;;;;;;;23.07;44.91;101431.09;2083377;28;803;-54
2022/06/16 01:02:47;;;;;;;;;;;;;;;23.07;45.39;101420.28;2083384;28;784;-54
2022/06/16 01:05:06;;;;;;;;;;;;;;;23.07;44.37;101425.69;2083483;28;665;-54
2022/06/16 01:06:23;;;;;;;;;;;;;;;23.07;45.07;101419.38;2082771;28;1276;-54
2022/06/16 01:07:31;;;;;;;;;;;;;;;23.07;44.64;101430.19;2083048;28;982;-54
2022/06/16 01:08:32;;;;;;;;;;;;;;;23.06;44.28;101425.72;2083465;28;791;-54
2022/06/16 01:09:33;;;;;;;;;;;;;;;23.05;44.81;101426.66;2083367;28;973;-54
2022/06/16 01:10:40;;;;;;;;;;;;;;;23.05;44.28;101427.53;2083479;28;1898;-54
2022/06/16 01:13:43;;;;;;;;;;;;;;;23.04;44.79;101425.78;2083421;28;681;-54
2022/06/16 01:14:49;;;;;;;;;;;;;;;23.06;44.87;101433.81;2083393;28;811;-54
2022/06/16 01:15:49;;;;;;;;;;;;;;;23.04;44.23;101425.78;2083374;28;980;-54
2022/06/16 01:16:51;;;;;;;;;;;;;;;23.06;44.11;101423.00;2083333;28;1001;-54
2022/06/16 01:17:52;;;;;;;;;;;;;;;23.06;43.94;101428.41;2083325;28;1060;-54
2022/06/16 01:19:20;;;;;;;;;;;;;;;23.05;44.37;101432.94;2083308;28;997;-54
2022/06/16 01:20:32;;;;;;;;;;;;;;;23.06;43.96;101423.00;2083384;28;994;-54
2022/06/16 01:21:35;;;;;;;;;;;;;;;23.05;44.30;101432.94;2083318;28;1052;-54
2022/06/16 01:22:50;;;;;;;;;;;;;;;23.05;44.30;101432.06;2083296;28;784;-54
2022/06/16 01:24:00;;;;;;;;;;;;;;;23.04;44.80;101425.78;2083381;28;795;-54
2022/06/16 01:25:11;;;;;;;;;;;;;;;23.05;44.88;101424.84;2083318;28;764;-54
2022/06/16 01:26:30;;;;;;;;;;;;;;;23.05;44.07;101426.66;2083329;28;1052;-54
2022/06/16 01:27:49;;;;;;;;;;;;;;;23.05;44.29;101435.66;2083189;28;1201;-54
2022/06/16 01:28:49;;;;;;;;;;;;;;;23.05;45.05;101432.06;2083257;28;986;-54
2022/06/16 01:30:08;;;;;;;;;;;;;;;23.02;45.34;101430.34;2083262;28;1976;-54
2022/06/16 01:31:17;;;;;;;;;;;;;;;23.02;45.21;101424.06;2083238;28;1005;-54
2022/06/16 01:32:35;;;;;;;;;;;;;;;23.03;45.18;101425.81;2083288;28;1283;-54
2022/06/16 01:33:36;;;;;;;;;;;;;;;23.04;45.13;101430.28;2083244;28;819;-54
2022/06/16 01:34:54;;;;;;;;;;;;;;;23.04;45.36;101433.00;2083159;28;954;-54
2022/06/16 01:36:11;;;;;;;;;;;;;;;23.03;45.27;101429.41;2083389;28;994;-54
2022/06/16 01:37:16;;;;;;;;;;;;;;;23.03;45.44;101428.53;2083268;28;937;-54
2022/06/16 01:38:27;;;;;;;;;;;;;;;23.03;45.09;101424.00;2083208;28;791;-54
2022/06/16 01:39:38;;;;;;;;;;;;;;;23.01;45.21;101427.69;2083210;28;842;-54
2022/06/16 01:40:41;;;;;;;;;;;;;;;23.02;45.15;101427.66;2083286;28;783;-54
2022/06/16 01:41:46;;;;;;;;;;;;;;;23.02;45.33;101427.66;2082485;28;903;-55
2022/06/16 01:42:47;;;;;;;;;;;;;;;23.02;44.69;101427.66;2082636;28;819;-54
2022/06/16 01:43:59;;;;;;;;;;;;;;;23.01;45.54;101425.00;2083223;28;807;-54
2022/06/16 01:44:59;;;;;;;;;;;;;;;23.01;45.43;101434.00;2083240;28;775;-54
2022/06/16 01:46:03;;;;;;;;;;;;;;;23.01;45.52;101427.69;2083157;28;902;-54
2022/06/16 01:47:12;;;;;;;;;;;;;;;23.01;45.63;101411.47;2083187;28;862;-54
2022/06/16 01:48:14;;;;;;;;;;;;;;;23.01;45.06;101428.59;2083163;28;819;-54
2022/06/16 01:49:25;;;;;;;;;;;;;;;23.00;45.52;101424.13;2083111;28;859;-54
2022/06/16 01:50:29;;;;;;;;;;;;;;;23.00;45.60;101426.81;2083124;28;1961;-54
2022/06/16 01:51:43;;;;;;;;;;;;;;;23.00;45.47;101429.53;2083276;28;926;-54
2022/06/16 01:52:46;;;;;;;;;;;;;;;23.00;45.55;101425.91;2083179;28;993;-54
2022/06/16 01:53:49;;;;;;;;;;;;;;;23.01;45.47;101425.00;2083143;28;827;-54
2022/06/16 01:54:54;;;;;;;;;;;;;;;23.00;45.50;101431.31;2083156;28;818;-54
2022/06/16 01:55:58;;;;;;;;;;;;;;;22.99;45.48;101433.16;2083115;28;989;-55
2022/06/16 01:56:58;;;;;;;;;;;;;;;22.98;45.49;101431.41;2083099;28;1009;-54
2022/06/16 01:57:58;;;;;;;;;;;;;;;22.97;45.61;101432.31;2083090;28;954;-54
2022/06/16 01:59:01;;;;;;;;;;;;;;;22.98;45.44;101426.00;2083065;28;958;-54
2022/06/16 02:00:17;;;;;;;;;;;;;;;22.99;44.83;101430.47;2083158;28;843;-54
2022/06/16 02:01:19;;;;;;;;;;;;;;;22.98;45.22;101430.50;2083153;28;906;-54
2022/06/16 02:02:20;;;;;;;;;;;;;;;22.99;44.99;101424.16;2083085;28;775;-54
2022/06/16 02:03:27;;;;;;;;;;;;;;;22.98;44.06;101420.59;2083152;28;851;-54
2022/06/16 02:04:33;;;;;;;;;;;;;;;22.97;44.14;101417.91;2083050;28;795;-54
2022/06/16 02:05:41;;;;;;;;;;;;;;;22.97;44.55;101423.31;2083052;28;803;-54
2022/06/16 02:06:43;;;;;;;;;;;;;;;22.97;44.15;101421.53;2083130;28;998;-54
2022/06/16 02:07:47;;;;;;;;;;;;;;;22.98;44.29;101419.69;2083097;28;823;-54
2022/06/16 02:08:50;;;;;;;;;;;;;;;22.98;43.77;101427.78;2083233;28;790;-54
2022/06/16 02:09:54;;;;;;;;;;;;;;;22.99;43.47;101421.44;2083022;28;1894;-54
2022/06/16 02:10:57;;;;;;;;;;;;;;;22.98;43.92;101420.59;2083096;28;1114;-54
2022/06/16 02:12:00;;;;;;;;;;;;;;;22.99;43.27;101419.66;2083058;28;1002;-54
2022/06/16 02:13:04;;;;;;;;;;;;;;;22.98;43.25;101415.19;2083048;28;1048;-54
2022/06/16 02:14:07;;;;;;;;;;;;;;;23.00;43.24;101420.53;2083587;28;897;-54
2022/06/16 02:15:18;;;;;;;;;;;;;;;22.99;43.79;101421.44;2084735;28;787;-54
2022/06/16 02:16:24;;;;;;;;;;;;;;;22.99;43.31;101422.34;2084782;28;894;-54
2022/06/16 02:17:24;;;;;;;;;;;;;;;23.00;42.95;101418.72;2084767;28;1017;-54
2022/06/16 02:18:27;;;;;;;;;;;;;;;22.99;43.44;101419.66;2084666;28;776;-54
2022/06/16 02:19:27;;;;;;;;;;;;;;;23.01;43.04;101423.19;2084702;28;898;-54
2022/06/16 02:20:32;;;;;;;;;;;;;;;23.00;43.75;101424.13;2084715;28;878;-54
2022/06/16 02:21:34;;;;;;;;;;;;;;;23.01;43.16;101411.47;2084946;28;717;-54
2022/06/16 02:22:35;;;;;;;;;;;;;;;23.02;43.76;101424.06;2084650;28;775;-54
2022/06/16 02:23:35;;;;;;;;;;;;;;;23.00;43.84;101421.41;2084671;28;853;-54
2022/06/16 02:24:36;;;;;;;;;;;;;;;23.00;44.10;101418.72;2084665;28;783;-54
2022/06/16 02:25:36;;;;;;;;;;;;;;;23.02;44.12;101422.25;2084578;28;954;-54
2022/06/16 02:26:36;;;;;;;;;;;;;;;23.01;44.34;101425.88;2084637;28;768;-54
2022/06/16 02:27:36;;;;;;;;;;;;;;;23.02;43.67;101421.34;2084496;28;1098;-54
2022/06/16 02:28:40;;;;;;;;;;;;;;;23.02;44.10;101426.75;2084638;28;768;-54
2022/06/16 02:29:41;;;;;;;;;;;;;;;23.01;43.62;101423.19;2084586;28;1914;-54
2022/06/16 02:30:49;;;;;;;;;;;;;;;23.01;43.71;101414.19;2084623;28;826;-54
2022/06/16 02:31:56;;;;;;;;;;;;;;;23.01;44.55;101420.47;2084597;28;982;-54
2022/06/16 02:33:20;;;;;;;;;;;;;;;23.01;44.62;101417.78;2084648;28;850;-54
2022/06/16 02:34:32;;;;;;;;;;;;;;;23.01;44.86;101425.00;2059170;28;1149;-54
2022/06/16 02:35:52;;;;;;;;;;;;;;;23.02;44.52;101421.34;2059237;28;1025;-54
2022/06/16 02:37:10;;;;;;;;;;;;;;;23.02;44.36;101422.25;2059296;28;907;-54
2022/06/16 02:38:33;;;;;;;;;;;;;;;23.02;44.86;101422.25;2059235;28;990;-54
2022/06/16 02:39:42;;;;;;;;;;;;;;;23.02;44.53;101419.56;2051610;28;1131;-54
2022/06/16 02:40:53;;;;;;;;;;;;;;;23.02;45.25;101408.75;2059316;28;804;-54
2022/06/16 02:42:01;;;;;;;;;;;;;;;23.01;45.36;101416.88;2059281;28;793;-54
2022/06/16 02:43:01;;;;;;;;;;;;;;;23.01;44.96;101414.19;2059288;28;812;-54
2022/06/16 02:44:04;;;;;;;;;;;;;;;23.02;45.16;101415.94;2059207;28;876;-54
2022/06/16 02:45:14;;;;;;;;;;;;;;;23.00;45.56;101415.13;2059218;28;800;-54
2022/06/16 02:46:14;;;;;;;;;;;;;;;23.00;44.96;101418.72;2059238;28;1002;-54
2022/06/16 02:47:50;;;;;;;;;;;;;;;23.01;45.36;101411.47;2059207;28;983;-54
2022/06/16 02:49:09;;;;;;;;;;;;;;;23.00;45.64;101410.63;2059252;28;839;-54
2022/06/16 02:50:12;;;;;;;;;;;;;;;23.00;45.54;101413.31;2059094;28;1898;-54
2022/06/16 02:51:33;;;;;;;;;;;;;;;23.02;45.06;101415.94;2059151;28;1006;-54
2022/06/16 02:52:37;;;;;;;;;;;;;;;23.01;45.47;101416.88;2059100;28;1002;-54
2022/06/16 02:53:45;;;;;;;;;;;;;;;23.00;45.70;101405.22;2059176;28;840;-54
2022/06/16 02:54:52;;;;;;;;;;;;;;;23.01;45.75;101412.38;2059171;28;820;-54
2022/06/16 02:55:55;;;;;;;;;;;;;;;23.00;45.75;101413.31;2059318;28;528;-54
2022/06/16 02:56:58;;;;;;;;;;;;;;;22.99;45.86;101416.94;2059160;28;808;-54
2022/06/16 02:58:00;;;;;;;;;;;;;;;22.99;46.14;101418.75;2059130;28;1037;-54
2022/06/16 02:59:06;;;;;;;;;;;;;;;23.00;46.01;101413.31;2059110;28;1164;-54
2022/06/16 03:00:10;;;;;;;;;;;;;;;23.01;46.17;101411.47;2059069;28;796;-54
2022/06/16 03:01:11;;;;;;;;;;;;;;;23.00;46.36;101417.81;2059064;28;2090;-54
2022/06/16 03:02:19;;;;;;;;;;;;;;;23.01;45.61;101416.88;2059091;28;1208;-54
2022/06/16 03:03:27;;;;;;;;;;;;;;;23.00;46.58;101418.72;2059066;28;912;-54
2022/06/16 03:04:33;;;;;;;;;;;;;;;23.00;47.46;101413.31;2059115;28;974;-54
2022/06/16 03:05:34;;;;;;;;;;;;;;;23.01;47.67;101422.28;2058989;28;989;-54
2022/06/16 03:06:34;;;;;;;;;;;;;;;23.01;48.27;101417.78;2059018;28;855;-54
2022/06/16 03:07:35;;;;;;;;;;;;;;;23.00;48.46;101410.63;2059034;28;772;-54
2022/06/16 03:08:38;;;;;;;;;;;;;;;23.00;48.99;101412.41;2059043;28;768;-54
2022/06/16 03:09:39;;;;;;;;;;;;;;;22.99;49.22;101410.66;2059034;28;982;-54
2022/06/16 03:10:51;;;;;;;;;;;;;;;22.98;49.17;101404.38;2058990;28;860;-54
2022/06/16 03:11:51;;;;;;;;;;;;;;;22.97;49.28;101391.81;2066037;28;1067;-54
2022/06/16 03:12:51;;;;;;;;;;;;;;;22.97;49.03;101391.81;2084301;28;834;-54
2022/06/16 03:13:51;;;;;;;;;;;;;;;22.96;48.82;101395.44;2084308;28;757;-54
2022/06/16 03:14:51;;;;;;;;;;;;;;;22.96;49.44;101390.03;2083711;28;684;-54
2022/06/16 03:15:52;;;;;;;;;;;;;;;22.96;49.39;101406.25;2083798;28;787;-54
2022/06/16 03:16:53;;;;;;;;;;;;;;;22.96;49.04;101406.25;2084336;28;890;-54
2022/06/16 03:17:53;;;;;;;;;;;;;;;22.95;50.10;101397.28;2084286;28;825;-54
2022/06/16 03:18:53;;;;;;;;;;;;;;;22.94;49.69;101391.91;2084256;28;859;-54
2022/06/16 03:19:53;;;;;;;;;;;;;;;22.94;50.03;101383.81;2084208;28;970;-54
2022/06/16 03:20:53;;;;;;;;;;;;;;;22.94;49.64;101397.31;2084273;28;858;-54
2022/06/16 03:21:57;;;;;;;;;;;;;;;22.93;49.90;101392.84;2084249;28;776;-54
2022/06/16 03:22:57;;;;;;;;;;;;;;;22.92;49.32;101394.69;2083507;28;867;-54
2022/06/16 03:23:57;;;;;;;;;;;;;;;22.91;49.40;101392.91;2083620;28;846;-54
2022/06/16 03:24:57;;;;;;;;;;;;;;;22.92;49.47;101388.38;2084179;28;768;-54
2022/06/16 03:25:58;;;;;;;;;;;;;;;22.90;49.79;101390.25;2083022;28;885;-54
2022/06/16 03:26:58;;;;;;;;;;;;;;;22.89;49.08;101388.47;2084033;28;1225;-54
2022/06/16 03:27:59;;;;;;;;;;;;;;;22.88;49.03;101386.72;2084167;28;966;-54
2022/06/16 03:28:59;;;;;;;;;;;;;;;22.87;48.18;101391.25;2084173;28;868;-54
2022/06/16 03:29:59;;;;;;;;;;;;;;;22.87;48.66;101391.25;2084091;28;1972;-54
2022/06/16 03:30:59;;;;;;;;;;;;;;;22.85;47.58;101386.81;2084185;28;1062;-54
2022/06/16 03:31:59;;;;;;;;;;;;;;;22.85;47.73;101386.81;2084141;28;1017;-54
2022/06/16 03:33:00;;;;;;;;;;;;;;;22.85;46.88;101394.94;2084132;28;1133;-54
2022/06/16 03:34:00;;;;;;;;;;;;;;;22.83;46.63;101386.88;2084178;28;854;-54
2022/06/16 03:35:01;;;;;;;;;;;;;;;22.84;46.86;101390.47;2084134;28;954;-54
2022/06/16 03:36:01;;;;;;;;;;;;;;;22.83;45.67;101388.69;2084139;28;824;-54
2022/06/16 03:37:01;;;;;;;;;;;;;;;22.82;45.75;101382.41;2084151;28;848;-54
2022/06/16 03:39:28;;;;;;;;;;;;;;;22.83;44.89;101383.28;2066727;28;1034;-54
2022/06/16 03:40:29;;;;;;;;;;;;;;;22.81;44.57;101375.25;2066797;28;999;-54
2022/06/16 03:41:29;;;;;;;;;;;;;;;22.82;45.16;101377.03;2066765;28;1053;-54
2022/06/16 03:42:30;;;;;;;;;;;;;;;22.81;44.86;101375.25;2066818;28;966;-54
2022/06/16 03:43:30;;;;;;;;;;;;;;;22.83;44.65;101381.50;2066845;28;886;-54
2022/06/16 03:44:30;;;;;;;;;;;;;;;22.82;43.95;101376.13;2066783;28;907;-54
2022/06/16 03:45:30;;;;;;;;;;;;;;;22.82;44.43;101381.53;2066807;28;864;-54
2022/06/16 03:46:31;;;;;;;;;;;;;;;22.82;44.21;101379.72;2066798;28;777;-54
2022/06/16 03:47:31;;;;;;;;;;;;;;;22.81;44.36;101380.66;2066814;28;986;-54
2022/06/16 03:48:32;;;;;;;;;;;;;;;22.82;43.54;101381.53;2067002;28;715;-54
2022/06/16 03:49:32;;;;;;;;;;;;;;;22.82;43.68;101385.13;2066802;28;1844;-54
2022/06/16 03:50:32;;;;;;;;;;;;;;;22.82;44.35;101381.53;2066697;28;1894;-54
2022/06/16 03:51:33;;;;;;;;;;;;;;;22.83;44.36;101380.59;2066723;28;1055;-54
2022/06/16 03:52:33;;;;;;;;;;;;;;;22.82;44.33;101382.41;2066757;28;997;-54
2022/06/16 03:53:33;;;;;;;;;;;;;;;22.81;44.25;101372.56;2066746;28;1005;-54
2022/06/16 03:54:33;;;;;;;;;;;;;;;22.82;44.16;101374.31;2066765;28;986;-54
2022/06/16 03:55:33;;;;;;;;;;;;;;;22.82;43.64;101374.31;2066759;28;863;-54
2022/06/16 03:56:33;;;;;;;;;;;;;;;22.82;43.82;101377.03;2066680;28;1049;-54
2022/06/16 03:57:34;;;;;;;;;;;;;;;22.80;43.90;101371.66;2066693;28;986;-54
2022/06/16 03:58:34;;;;;;;;;;;;;;;22.82;44.78;101377.03;2066715;28;982;-54
2022/06/16 03:59:34;;;;;;;;;;;;;;;22.82;44.25;101365.31;2066711;28;1231;-53
2022/06/16 04:00:34;;;;;;;;;;;;;;;22.83;44.38;101365.28;2066704;28;788;-54
2022/06/16 04:01:34;;;;;;;;;;;;;;;22.82;44.97;101368.03;2066676;28;867;-54
2022/06/16 04:02:35;;;;;;;;;;;;;;;23.80;42.31;101363.56;2066635;28;974;-54
2022/06/16 04:04:54;;;;;;;;;;;;;;;25.82;37.62;101360.44;2066722;28;661;-52
2022/06/16 04:05:54;;;;;;;;;;;;;;;26.47;36.46;101364.56;2066754;28;1016;-52
2022/06/16 04:06:55;;;;;;;;;;;;;;;26.91;35.70;101357.84;2066696;28;756;-52
2022/06/16 04:07:55;;;;;;;;;;;;;;;27.33;34.72;101352.91;2066652;28;795;-52
2022/06/16 04:08:55;;;;;;;;;;;;;;;27.51;34.53;101351.91;2066632;28;699;-52
2022/06/16 04:09:55;;;;;;;;;;;;;;;27.74;33.84;101349.78;2066565;28;1911;-53
2022/06/16 04:10:56;;;;;;;;;;;;;;;28.05;33.51;101347.16;2066558;28;1025;-53
2022/06/16 04:11:56;;;;;;;;;;;;;;;28.31;33.25;101352.94;2066590;28;813;-54
2022/06/16 04:12:56;;;;;;;;;;;;;;;28.36;33.22;101356.28;2066588;28;1049;-54
2022/06/16 04:14:07;;;;;;;;;;;;;;;28.68;32.52;101358.94;2066549;28;982;-54
2022/06/16 04:15:07;;;;;;;;;;;;;;;28.67;32.59;101346.28;2066652;28;773;-54
2022/06/16 04:16:07;;;;;;;;;;;;;;;29.05;31.59;101351.25;2066559;28;994;-54
2022/06/16 04:17:08;;;;;;;;;;;;;;;29.32;31.40;101347.81;2077860;28;986;-54
2022/06/16 04:18:08;;;;;;;;;;;;;;;29.27;31.44;101344.47;2083791;28;1057;-54
2022/06/16 04:19:10;;;;;;;;;;;;;;;29.50;30.73;101337.59;2083790;28;847;-54
2022/06/16 04:20:13;;;;;;;;;;;;;;;29.67;30.18;101338.38;2083779;28;994;-54
2022/06/16 04:21:13;;;;;;;;;;;;;;;29.93;29.56;101342.13;2083814;28;760;-54
2022/06/16 04:22:13;;;;;;;;;;;;;;;29.98;29.64;101341.84;2083774;28;848;-54
2022/06/16 04:23:14;;;;;;;;;;;;;;;30.13;29.29;101343.56;2083714;28;1009;-54
2022/06/16 04:24:15;;;;;;;;;;;;;;;30.57;28.56;101338.81;2083718;28;879;-54
2022/06/16 04:25:16;;;;;;;;;;;;;;;30.41;28.83;101340.81;2082933;28;1488;-54
2022/06/16 04:26:16;;;;;;;;;;;;;;;30.85;27.92;101347.84;2083114;28;1060;-54
2022/06/16 04:27:16;;;;;;;;;;;;;;;30.95;27.87;101339.00;2083664;28;1197;-54
2022/06/16 04:28:17;;;;;;;;;;;;;;;30.94;27.69;101337.22;2083722;28;859;-54
2022/06/16 04:29:17;;;;;;;;;;;;;;;30.95;27.65;101337.13;2083668;28;966;-54
2022/06/16 04:30:18;;;;;;;;;;;;;;;31.39;26.99;101340.44;2083739;28;1967;-54
2022/06/16 04:31:18;;;;;;;;;;;;;;;31.39;27.38;101345.91;2083704;28;836;-54
2022/06/16 04:32:18;;;;;;;;;;;;;;;31.63;26.54;101340.50;2083664;28;705;-54
2022/06/16 04:33:19;;;;;;;;;;;;;;;31.49;27.15;101338.78;2083678;28;784;-54
2022/06/16 04:34:19;;;;;;;;;;;;;;;31.72;26.63;101343.56;2083708;28;811;-54
2022/06/16 04:35:19;;;;;;;;;;;;;;;31.85;26.55;101341.69;2083666;28;967;-54
2022/06/16 04:36:19;;;;;;;;;;;;;;;31.79;26.49;101343.03;2083710;28;840;-54
2022/06/16 04:37:19;;;;;;;;;;;;;;;32.08;26.21;101339.13;2083259;28;1261;-54
2022/06/16 04:38:19;;;;;;;;;;;;;;;32.28;25.90;101342.19;2083633;28;785;-54
2022/06/16 04:39:20;;;;;;;;;;;;;;;32.21;25.81;101350.00;2083650;28;886;-54
2022/06/16 04:40:20;;;;;;;;;;;;;;;32.35;25.79;101348.97;2083603;28;910;-54
2022/06/16 04:41:20;;;;;;;;;;;;;;;32.34;25.94;101347.25;2083600;28;978;-54
2022/06/16 04:42:21;;;;;;;;;;;;;;;32.71;25.38;101346.25;2083617;28;1036;-54
2022/06/16 04:43:21;;;;;;;;;;;;;;;32.93;24.97;101356.44;2083567;28;1018;-54
2022/06/16 04:44:21;;;;;;;;;;;;;;;32.76;25.16;101352.25;2082919;28;820;-54
2022/06/16 04:45:22;;;;;;;;;;;;;;;32.60;25.47;101356.19;2083121;28;721;-54
2022/06/16 04:46:24;;;;;;;;;;;;;;;32.78;25.29;101355.75;2083570;28;803;-54
2022/06/16 04:47:25;;;;;;;;;;;;;;;32.72;25.21;101361.72;2083568;28;795;-54
2022/06/16 04:48:26;;;;;;;;;;;;;;;32.63;25.42;101350.47;2082815;28;922;-54
2022/06/16 04:49:26;;;;;;;;;;;;;;;32.53;25.85;101354.91;2078219;28;1344;-54
2022/06/16 04:50:26;;;;;;;;;;;;;;;33.00;25.04;101365.06;2082653;28;1898;-54
2022/06/16 04:51:26;;;;;;;;;;;;;;;33.13;24.87;101362.25;2083417;28;1311;-54
2022/06/16 04:52:26;;;;;;;;;;;;;;;33.09;25.25;101361.59;2082737;28;1458;-54
2022/06/16 04:53:26;;;;;;;;;;;;;;;33.10;24.95;101363.34;2082139;28;1434;-54
2022/06/16 04:54:26;;;;;;;;;;;;;;;33.29;24.97;101360.00;2083528;28;1331;-54
2022/06/16 04:55:27;;;;;;;;;;;;;;;33.28;24.81;101365.63;2083453;28;1013;-54
2022/06/16 04:56:27;;;;;;;;;;;;;;;33.36;24.54;101358.50;2083431;28;822;-54
2022/06/16 04:57:28;;;;;;;;;;;;;;;33.05;25.18;101358.22;2083425;28;1004;-57
2022/06/16 04:58:28;;;;;;;;;;;;;;;32.50;26.16;101369.75;2083335;28;1351;-56
2022/06/16 04:59:29;;;;;;;;;;;;;;;33.05;25.51;101360.09;2083467;28;822;-56
2022/06/16 05:00:29;;;;;;;;;;;;;;;33.22;25.21;101356.03;2083410;28;806;-54
2022/06/16 05:01:29;;;;;;;;;;;;;;;33.32;25.45;101367.97;2083695;28;687;-54
2022/06/16 05:02:29;;;;;;;;;;;;;;;33.43;25.09;101358.94;2082537;28;1350;-54
2022/06/16 05:03:30;;;;;;;;;;;;;;;33.54;24.96;101361.69;2082449;28;1597;-54
2022/06/16 05:04:30;;;;;;;;;;;;;;;33.68;24.65;101356.91;2083307;28;1560;-54
2022/06/16 05:05:30;;;;;;;;;;;;;;;33.61;24.86;101361.16;2083314;28;1276;-54
2022/06/16 05:06:31;;;;;;;;;;;;;;;33.52;24.83;101360.94;2082531;28;1375;-54
2022/06/16 05:07:31;;;;;;;;;;;;;;;33.50;25.17;101362.03;2083185;28;1414;-55
2022/06/16 05:08:31;;;;;;;;;;;;;;;33.35;25.28;101364.13;2083316;28;1375;-55
2022/06/16 05:09:31;;;;;;;;;;;;;;;33.68;24.85;101356.91;2083296;28;993;-54
2022/06/16 05:10:31;;;;;;;;;;;;;;;33.63;25.08;101346.31;2083275;28;1951;-55
2022/06/16 05:11:31;;;;;;;;;;;;;;;33.80;25.28;101344.91;2083370;28;855;-54
2022/06/16 05:12:32;;;;;;;;;;;;;;;34.11;25.31;101347.91;2083277;28;1304;-54
2022/06/16 05:13:32;;;;;;;;;;;;;;;33.93;25.75;101349.44;2083314;28;981;-54
2022/06/16 05:14:32;;;;;;;;;;;;;;;33.82;25.99;101348.41;2083292;28;827;-54
2022/06/16 05:15:32;;;;;;;;;;;;;;;33.67;26.24;101349.66;2083329;28;863;-54
2022/06/16 05:16:32;;;;;;;;;;;;;;;33.50;26.84;101351.06;2083432;28;931;-55
2022/06/16 05:17:33;;;;;;;;;;;;;;;33.74;26.41;101350.06;2083251;28;1002;-55
2022/06/16 05:18:33;;;;;;;;;;;;;;;33.75;26.34;101351.81;2083010;28;1360;-55
2022/06/16 05:19:33;;;;;;;;;;;;;;;33.81;26.02;101348.56;2081595;28;1344;-54
2022/06/16 05:20:33;;;;;;;;;;;;;;;33.72;26.10;101352.91;2081221;28;1359;-54
2022/06/16 05:21:34;;;;;;;;;;;;;;;33.89;26.19;101353.41;2080327;28;1490;-54
2022/06/16 05:22:34;;;;;;;;;;;;;;;33.73;26.35;101348.31;2083133;28;1296;-54
2022/06/16 05:23:35;;;;;;;;;;;;;;;33.65;26.62;101357.16;2084804;28;1447;-54
2022/06/16 05:24:35;;;;;;;;;;;;;;;33.84;25.99;101357.41;2082348;28;1295;-54
2022/06/16 05:25:35;;;;;;;;;;;;;;;33.91;26.30;101355.00;2082753;28;683;-54
2022/06/16 05:26:36;;;;;;;;;;;;;;;33.84;26.54;101354.66;2081105;28;1501;-55
2022/06/16 05:27:36;;;;;;;;;;;;;;;33.55;27.02;101360.69;2082992;28;1525;-54
2022/06/16 05:28:36;;;;;;;;;;;;;;;33.17;27.43;101356.38;2084844;28;1179;-55
2022/06/16 05:29:36;;;;;;;;;;;;;;;32.71;28.13;101363.56;2083169;28;710;-55
2022/06/16 05:30:37;;;;;;;;;;;;;;;33.01;28.11;101353.09;2083132;28;1910;-56
2022/06/16 05:31:37;;;;;;;;;;;;;;;33.65;27.22;101351.66;2083177;28;960;-52
2022/06/16 05:32:37;;;;;;;;;;;;;;;33.78;26.71;101357.03;2084758;28;1292;-57
2022/06/16 05:33:37;;;;;;;;;;;;;;;33.59;26.88;101358.56;2083191;28;823;-56
2022/06/16 05:34:38;;;;;;;;;;;;;;;33.44;27.06;101359.78;2083196;28;782;-58
2022/06/16 05:35:38;;;;;;;;;;;;;;;33.47;26.95;101356.78;2083174;28;938;-56